Cape Magnolia — 3FGP2 — position and weather

sailwx.info

Track history (hours):
 
Tides and Currents Weather Stations Pressure Air Temp Water Temp Dewpoint Dewpoint Depression Visibility Wind Speed Wind Dir Waves Ship Positions

Cape Magnolia

Last reported at 2017-Aug-13 21:17 UTC. Time now 2017-Aug-23 10:10 UTC.
Position N 01°16' E 104°09'.
Warning: this ship's position is 9 days out of date.

Length 292 m; draft 18.5 m.

Type: Cargo ship. MMSI: 357427000.

Date/timePositionNaut miles runAvg speedWind from/ knotsBaromVisibWave heightAir tempDewpointWater temp
2017-Aug-13 21:17N 01°16' E 104°09'310.3
2017-Aug-13 20:57N 01°15' E 104°05'4 8.4
2017-Aug-13 20:30N 01°16' E 104°02'2 3.2
2017-Aug-13 19:59N 01°17' E 104°01'0 0.1
2017-Aug-13 17:26N 01°17' E 104°00'0 0.4
2017-Aug-13 16:56N 01°17' E 104°01'0 0.2
2017-Aug-13 16:23N 01°17' E 104°01'0 0.0
2017-Aug-13 15:38N 01°17' E 104°01'0 0.0
2017-Aug-13 14:29N 01°17' E 104°01'0 0.0
2017-Aug-13 12:59N 01°17' E 104°01'0 0.3
2017-Aug-13 12:17N 01°17' E 104°01'0 0.7
2017-Aug-13 11:50N 01°17' E 104°00'0 0.3
2017-Aug-13 11:30N 01°17' E 104°00'2 4.1
2017-Aug-13 11:00N 01°16' E 103°59'2 3.3
2017-Aug-13 10:30N 01°15' E 103°57'2 4.6
2017-Aug-13 10:00N 01°14' E 103°56'611.8
2017-Aug-13 09:30N 01°11' E 103°50'611.5
2017-Aug-13 08:59N 01°08' E 103°45'510.2
2017-Aug-13 08:30N 01°05' E 103°42'5 9.3
2017-Aug-13 07:59N 01°04' E 103°37'611.3
2017-Aug-13 07:29N 01°07' E 103°32'611.6
2017-Aug-13 07:01N 01°10' E 103°28'611.9
2017-Aug-13 06:30N 01°13' E 103°23'611.9
2017-Aug-13 06:01N 01°17' E 103°18'  
Track history (hours):
 
Tides and Currents Weather Stations Pressure Air Temp Water Temp Dewpoint Dewpoint Depression Visibility Wind Speed Wind Dir Waves Ship Positions

Cape Magnolia

Last reported at 2017-Aug-13 21:17 UTC. Time now 2017-Aug-23 10:10 UTC.
Position N 01°16' E 104°09'.
Warning: this ship's position is 9 days out of date.

Length 292 m; draft 18.5 m.

Type: Cargo ship. MMSI: 357427000.

Date/timePositionNaut miles runAvg speedWind from/ knotsBaromVisibWave heightAir tempDewpointWater temp
2017-Aug-13 21:17N 01°16' E 104°09'310.3
2017-Aug-13 20:57N 01°15' E 104°05'4 8.4
2017-Aug-13 20:30N 01°16' E 104°02'2 3.2
2017-Aug-13 19:59N 01°17' E 104°01'0 0.1
2017-Aug-13 17:26N 01°17' E 104°00'0 0.4
2017-Aug-13 16:56N 01°17' E 104°01'0 0.2
2017-Aug-13 16:23N 01°17' E 104°01'0 0.0
2017-Aug-13 15:38N 01°17' E 104°01'0 0.0
2017-Aug-13 14:29N 01°17' E 104°01'0 0.0
2017-Aug-13 12:59N 01°17' E 104°01'0 0.3
2017-Aug-13 12:17N 01°17' E 104°01'0 0.7
2017-Aug-13 11:50N 01°17' E 104°00'0 0.3
2017-Aug-13 11:30N 01°17' E 104°00'2 4.1
2017-Aug-13 11:00N 01°16' E 103°59'2 3.3
2017-Aug-13 10:30N 01°15' E 103°57'2 4.6
2017-Aug-13 10:00N 01°14' E 103°56'611.8
2017-Aug-13 09:30N 01°11' E 103°50'611.5
2017-Aug-13 08:59N 01°08' E 103°45'510.2
2017-Aug-13 08:30N 01°05' E 103°42'5 9.3
2017-Aug-13 07:59N 01°04' E 103°37'611.3
2017-Aug-13 07:29N 01°07' E 103°32'611.6
2017-Aug-13 07:01N 01°10' E 103°28'611.9
2017-Aug-13 06:30N 01°13' E 103°23'611.9
2017-Aug-13 06:01N 01°17' E 103°18'  

Dump ship's entire track history